sensor_id;sensor_type;location;lat;lon;timestamp;pressure;altitude;pressure_sealevel;temperature;humidity
61119;BME280;51448;51.660;5.824;2024-01-15T00:02:16;100306.81;;;1.83;100.00
61119;BME280;51448;51.660;5.824;2024-01-15T00:04:43;100301.34;;;1.83;100.00
61119;BME280;51448;51.660;5.824;2024-01-15T00:07:11;100300.25;;;1.84;100.00
61119;BME280;51448;51.660;5.824;2024-01-15T00:09:39;100291.28;;;1.84;100.00
61119;BME280;51448;51.660;5.824;2024-01-15T00:12:07;100292.09;;;1.84;100.00
61119;BME280;51448;51.660;5.824;2024-01-15T00:14:36;100290.22;;;1.85;100.00
61119;BME280;51448;51.660;5.824;2024-01-15T00:17:04;100287.22;;;1.87;100.00
61119;BME280;51448;51.660;5.824;2024-01-15T00:19:31;100285.84;;;1.84;100.00
61119;BME280;51448;51.660;5.824;2024-01-15T00:21:59;100278.78;;;1.83;100.00
61119;BME280;51448;51.660;5.824;2024-01-15T00:24:27;100281.50;;;1.83;100.00
61119;BME280;51448;51.660;5.824;2024-01-15T00:26:55;100283.94;;;1.84;100.00
61119;BME280;51448;51.660;5.824;2024-01-15T00:29:23;100275.78;;;1.84;100.00
61119;BME280;51448;51.660;5.824;2024-01-15T00:31:50;100273.34;;;1.83;100.00
61119;BME280;51448;51.660;5.824;2024-01-15T00:34:18;100282.06;;;1.80;100.00
61119;BME280;51448;51.660;5.824;2024-01-15T00:36:46;100276.63;;;1.80;100.00
61119;BME280;51448;51.660;5.824;2024-01-15T00:39:13;100267.91;;;1.78;100.00
61119;BME280;51448;51.660;5.824;2024-01-15T00:41:41;100270.63;;;1.78;100.00
61119;BME280;51448;51.660;5.824;2024-01-15T00:44:08;100267.91;;;1.78;100.00
61119;BME280;51448;51.660;5.824;2024-01-15T00:46:43;100257.84;;;1.78;100.00
61119;BME280;51448;51.660;5.824;2024-01-15T00:49:13;100262.47;;;1.78;100.00
61119;BME280;51448;51.660;5.824;2024-01-15T00:51:42;100253.50;;;1.77;100.00
61119;BME280;51448;51.660;5.824;2024-01-15T00:54:10;100251.59;;;1.78;100.00
61119;BME280;51448;51.660;5.824;2024-01-15T00:56:37;100248.34;;;1.76;100.00
61119;BME280;51448;51.660;5.824;2024-01-15T00:59:05;100242.09;;;1.75;100.00
61119;BME280;51448;51.660;5.824;2024-01-15T01:01:33;100249.69;;;1.73;100.00
61119;BME280;51448;51.660;5.824;2024-01-15T01:04:00;100247.25;;;1.72;100.00
61119;BME280;51448;51.660;5.824;2024-01-15T01:06:28;100243.19;;;1.69;100.00
61119;BME280;51448;51.660;5.824;2024-01-15T01:09:00;100246.16;;;1.68;100.00
61119;BME280;51448;51.660;5.824;2024-01-15T01:11:28;100243.44;;;1.63;100.00
61119;BME280;51448;51.660;5.824;2024-01-15T01:13:55;100237.47;;;1.61;100.00
61119;BME280;51448;51.660;5.824;2024-01-15T01:16:24;100229.03;;;1.57;100.00
61119;BME280;51448;51.660;5.824;2024-01-15T01:18:51;100235.56;;;1.56;100.00
61119;BME280;51448;51.660;5.824;2024-01-15T01:21:22;100229.91;;;1.52;100.00
61119;BME280;51448;51.660;5.824;2024-01-15T01:23:52;100242.94;;;1.50;100.00
61119;BME280;51448;51.660;5.824;2024-01-15T01:26:20;100242.41;;;1.48;100.00
61119;BME280;51448;51.660;5.824;2024-01-15T01:28:47;100238.06;;;1.47;100.00
61119;BME280;51448;51.660;5.824;2024-01-15T01:31:15;100239.41;;;1.45;100.00
61119;BME280;51448;51.660;5.824;2024-01-15T01:33:44;100246.47;;;1.41;100.00
61119;BME280;51448;51.660;5.824;2024-01-15T01:36:11;100246.22;;;1.37;100.00
61119;BME280;51448;51.660;5.824;2024-01-15T01:38:39;100250.56;;;1.33;100.00
61119;BME280;51448;51.660;5.824;2024-01-15T01:41:07;100248.66;;;1.28;100.00
61119;BME280;51448;51.660;5.824;2024-01-15T01:43:35;100239.97;;;1.26;100.00
61119;BME280;51448;51.660;5.824;2024-01-15T01:46:02;100243.22;;;1.23;100.00
61119;BME280;51448;51.660;5.824;2024-01-15T01:48:31;100249.22;;;1.20;100.00
61119;BME280;51448;51.660;5.824;2024-01-15T01:51:02;100243.22;;;1.18;100.00
61119;BME280;51448;51.660;5.824;2024-01-15T01:53:33;100248.94;;;1.17;100.00
61119;BME280;51448;51.660;5.824;2024-01-15T01:56:05;100245.41;;;1.16;100.00
61119;BME280;51448;51.660;5.824;2024-01-15T01:58:34;100244.03;;;1.14;100.00
61119;BME280;51448;51.660;5.824;2024-01-15T02:01:01;100243.50;;;1.12;100.00
61119;BME280;51448;51.660;5.824;2024-01-15T02:03:30;100252.72;;;1.11;100.00
61119;BME280;51448;51.660;5.824;2024-01-15T02:06:01;100250.28;;;1.09;100.00
61119;BME280;51448;51.660;5.824;2024-01-15T02:08:30;100250.81;;;1.06;100.00
61119;BME280;51448;51.660;5.824;2024-01-15T02:10:57;100252.72;;;1.05;100.00
61119;BME280;51448;51.660;5.824;2024-01-15T02:13:25;100251.91;;;1.05;100.00
61119;BME280;51448;51.660;5.824;2024-01-15T02:15:52;100241.31;;;1.03;100.00
61119;BME280;51448;51.660;5.824;2024-01-15T02:18:20;100242.66;;;1.01;100.00
61119;BME280;51448;51.660;5.824;2024-01-15T02:20:48;100237.50;;;0.99;100.00
61119;BME280;51448;51.660;5.824;2024-01-15T02:23:16;100241.56;;;0.97;100.00
61119;BME280;51448;51.660;5.824;2024-01-15T02:25:47;100236.69;;;0.94;100.00
61119;BME280;51448;51.660;5.824;2024-01-15T02:28:16;100236.41;;;0.95;100.00
61119;BME280;51448;51.660;5.824;2024-01-15T02:30:45;100243.22;;;0.98;100.00
61119;BME280;51448;51.660;5.824;2024-01-15T02:33:13;100242.38;;;0.97;100.00
61119;BME280;51448;51.660;5.824;2024-01-15T02:35:41;100233.69;;;0.95;100.00
61119;BME280;51448;51.660;5.824;2024-01-15T02:38:08;100240.22;;;0.94;100.00
61119;BME280;51448;51.660;5.824;2024-01-15T02:40:36;100233.69;;;0.95;100.00
61119;BME280;51448;51.660;5.824;2024-01-15T02:43:04;100235.88;;;0.93;100.00
61119;BME280;51448;51.660;5.824;2024-01-15T02:45:31;100234.22;;;0.92;100.00
61119;BME280;51448;51.660;5.824;2024-01-15T02:47:59;100230.97;;;0.95;100.00
61119;BME280;51448;51.660;5.824;2024-01-15T02:50:27;100237.22;;;0.96;100.00
61119;BME280;51448;51.660;5.824;2024-01-15T02:52:54;100241.31;;;0.93;100.00
61119;BME280;51448;51.660;5.824;2024-01-15T02:55:22;100236.94;;;0.92;100.00
61119;BME280;51448;51.660;5.824;2024-01-15T02:57:49;100244.03;;;0.93;100.00
61119;BME280;51448;51.660;5.824;2024-01-15T03:00:17;100230.97;;;0.90;100.00
61119;BME280;51448;51.660;5.824;2024-01-15T03:02:45;100240.22;;;0.89;100.00
61119;BME280;51448;51.660;5.824;2024-01-15T03:05:15;100235.88;;;0.88;100.00
61119;BME280;51448;51.660;5.824;2024-01-15T03:07:43;100233.69;;;0.85;100.00
61119;BME280;51448;51.660;5.824;2024-01-15T03:10:11;100235.59;;;0.85;100.00
61119;BME280;51448;51.660;5.824;2024-01-15T03:12:38;100232.88;;;0.85;100.00
61119;BME280;51448;51.660;5.824;2024-01-15T03:15:06;100235.88;;;0.83;100.00
61119;BME280;51448;51.660;5.824;2024-01-15T03:17:34;100235.31;;;0.81;100.00
61119;BME280;51448;51.660;5.824;2024-01-15T03:20:02;100236.38;;;0.80;100.00
61119;BME280;51448;51.660;5.824;2024-01-15T03:22:30;100233.94;;;0.78;100.00
61119;BME280;51448;51.660;5.824;2024-01-15T03:24:58;100237.19;;;0.75;100.00
61119;BME280;51448;51.660;5.824;2024-01-15T03:27:25;100233.66;;;0.75;100.00
61119;BME280;51448;51.660;5.824;2024-01-15T03:29:53;100236.38;;;0.75;100.00
61119;BME280;51448;51.660;5.824;2024-01-15T03:32:21;100233.66;;;0.75;100.00
61119;BME280;51448;51.660;5.824;2024-01-15T03:34:48;100226.59;;;0.74;100.00
61119;BME280;51448;51.660;5.824;2024-01-15T03:37:16;100229.03;;;0.75;100.00
61119;BME280;51448;51.660;5.824;2024-01-15T03:39:43;100227.69;;;0.73;100.00
61119;BME280;51448;51.660;5.824;2024-01-15T03:42:11;100226.59;;;0.74;100.00
61119;BME280;51448;51.660;5.824;2024-01-15T03:44:39;100226.59;;;0.74;100.00
61119;BME280;51448;51.660;5.824;2024-01-15T03:47:06;100228.78;;;0.72;100.00
61119;BME280;51448;51.660;5.824;2024-01-15T03:49:34;100219.81;;;0.71;100.00
61119;BME280;51448;51.660;5.824;2024-01-15T03:52:02;100218.47;;;0.74;100.00
61119;BME280;51448;51.660;5.824;2024-01-15T03:54:29;100214.94;;;0.78;100.00
61119;BME280;51448;51.660;5.824;2024-01-15T03:56:57;100219.00;;;0.76;100.00
61119;BME280;51448;51.660;5.824;2024-01-15T03:59:24;100220.66;;;0.77;100.00
61119;BME280;51448;51.660;5.824;2024-01-15T04:01:52;100207.88;;;0.77;100.00
61119;BME280;51448;51.660;5.824;2024-01-15T04:04:20;100215.22;;;0.77;100.00
61119;BME280;51448;51.660;5.824;2024-01-15T04:06:48;100211.69;;;0.76;100.00
61119;BME280;51448;51.660;5.824;2024-01-15T04:09:15;100211.69;;;0.76;100.00
61119;BME280;51448;51.660;5.824;2024-01-15T04:11:43;100207.31;;;0.75;100.00
61119;BME280;51448;51.660;5.824;2024-01-15T04:14:11;100204.34;;;0.77;100.00
61119;BME280;51448;51.660;5.824;2024-01-15T04:16:38;100203.78;;;0.75;100.00
61119;BME280;51448;51.660;5.824;2024-01-15T04:19:06;100197.28;;;0.76;100.00
61119;BME280;51448;51.660;5.824;2024-01-15T04:21:34;100197.03;;;0.77;100.00
61119;BME280;51448;51.660;5.824;2024-01-15T04:24:01;100198.94;;;0.77;100.00
61119;BME280;51448;51.660;5.824;2024-01-15T04:26:32;100199.75;;;0.77;100.00
61119;BME280;51448;51.660;5.824;2024-01-15T04:29:00;100195.41;;;0.82;100.00
61119;BME280;51448;51.660;5.824;2024-01-15T04:31:28;100191.59;;;0.83;100.00
61119;BME280;51448;51.660;5.824;2024-01-15T04:33:56;100177.19;;;0.82;100.00
61119;BME280;51448;51.660;5.824;2024-01-15T04:36:24;100176.94;;;0.84;100.00
61119;BME280;51448;51.660;5.824;2024-01-15T04:38:51;100171.22;;;0.85;100.00
61119;BME280;51448;51.660;5.824;2024-01-15T04:41:19;100176.38;;;0.87;100.00
61119;BME280;51448;51.660;5.824;2024-01-15T04:43:47;100166.34;;;0.87;100.00
61119;BME280;51448;51.660;5.824;2024-01-15T04:46:14;100171.50;;;0.89;100.00
61119;BME280;51448;51.660;5.824;2024-01-15T04:48:42;100179.38;;;0.90;100.00
61119;BME280;51448;51.660;5.824;2024-01-15T04:51:09;100169.59;;;0.89;100.00
61119;BME280;51448;51.660;5.824;2024-01-15T04:53:37;100161.16;;;0.91;100.00
61119;BME280;51448;51.660;5.824;2024-01-15T04:56:05;100160.34;;;0.90;100.00
61119;BME280;51448;51.660;5.824;2024-01-15T04:58:33;100154.91;;;0.90;100.00
61119;BME280;51448;51.660;5.824;2024-01-15T05:01:00;100158.16;;;0.92;100.00
61119;BME280;51448;51.660;5.824;2024-01-15T05:03:28;100164.16;;;0.94;100.00
61119;BME280;51448;51.660;5.824;2024-01-15T05:05:57;100161.72;;;0.93;100.00
61119;BME280;51448;51.660;5.824;2024-01-15T05:08:25;100166.88;;;0.94;100.00
61119;BME280;51448;51.660;5.824;2024-01-15T05:10:52;100160.63;;;0.94;100.00
61119;BME280;51448;51.660;5.824;2024-01-15T05:13:20;100164.69;;;0.96;100.00
61119;BME280;51448;51.660;5.824;2024-01-15T05:15:47;100159.53;;;1.00;100.00
61119;BME280;51448;51.660;5.824;2024-01-15T05:18:15;100169.59;;;1.04;100.00
61119;BME280;51448;51.660;5.824;2024-01-15T05:20:44;100167.13;;;1.08;100.00
61119;BME280;51448;51.660;5.824;2024-01-15T05:23:12;100170.94;;;1.12;100.00
61119;BME280;51448;51.660;5.824;2024-01-15T05:25:39;100167.94;;;1.14;100.00
61119;BME280;51448;51.660;5.824;2024-01-15T05:28:07;100167.69;;;1.15;100.00
61119;BME280;51448;51.660;5.824;2024-01-15T05:30:35;100167.13;;;1.13;100.00
61119;BME280;51448;51.660;5.824;2024-01-15T05:33:02;100160.63;;;1.09;100.00
61119;BME280;51448;51.660;5.824;2024-01-15T05:35:30;100154.09;;;1.10;100.00
61119;BME280;51448;51.660;5.824;2024-01-15T05:37:58;100148.09;;;1.08;100.00
61119;BME280;51448;51.660;5.824;2024-01-15T05:40:25;100160.88;;;1.13;100.00
61119;BME280;51448;51.660;5.824;2024-01-15T05:42:53;100150.28;;;1.11;100.00
61119;BME280;51448;51.660;5.824;2024-01-15T05:45:20;100147.84;;;1.10;100.00
61119;BME280;51448;51.660;5.824;2024-01-15T05:47:48;100160.63;;;1.09;100.00
61119;BME280;51448;51.660;5.824;2024-01-15T05:50:16;100166.31;;;1.08;100.00
61119;BME280;51448;51.660;5.824;2024-01-15T05:52:44;100157.06;;;1.09;100.00
61119;BME280;51448;51.660;5.824;2024-01-15T05:55:11;100153.00;;;1.11;100.00
61119;BME280;51448;51.660;5.824;2024-01-15T05:57:39;100158.44;;;1.11;100.00
61119;BME280;51448;51.660;5.824;2024-01-15T06:00:07;100148.38;;;1.12;100.00
61119;BME280;51448;51.660;5.824;2024-01-15T06:02:39;100144.56;;;1.13;100.00
61119;BME280;51448;51.660;5.824;2024-01-15T06:05:07;100144.03;;;1.11;100.00
61119;BME280;51448;51.660;5.824;2024-01-15T06:07:35;100138.06;;;1.09;100.00
61119;BME280;51448;51.660;5.824;2024-01-15T06:10:06;100134.00;;;1.06;100.00
61119;BME280;51448;51.660;5.824;2024-01-15T06:12:33;100132.09;;;1.07;100.00
61119;BME280;51448;51.660;5.824;2024-01-15T06:15:01;100134.28;;;1.04;100.00
61119;BME280;51448;51.660;5.824;2024-01-15T06:17:29;100130.19;;;1.02;100.00
61119;BME280;51448;51.660;5.824;2024-01-15T06:19:57;100128.84;;;0.99;100.00
61119;BME280;51448;51.660;5.824;2024-01-15T06:22:25;100131.56;;;0.99;100.00
61119;BME280;51448;51.660;5.824;2024-01-15T06:24:55;100123.69;;;0.98;100.00
61119;BME280;51448;51.660;5.824;2024-01-15T06:27:23;100127.47;;;0.97;100.00
61119;BME280;51448;51.660;5.824;2024-01-15T06:29:51;100131.00;;;0.97;100.00
61119;BME280;51448;51.660;5.824;2024-01-15T06:32:18;100125.56;;;0.97;100.00
61119;BME280;51448;51.660;5.824;2024-01-15T06:34:46;100121.22;;;0.96;100.00
61119;BME280;51448;51.660;5.824;2024-01-15T06:37:13;100125.31;;;0.99;100.00
61119;BME280;51448;51.660;5.824;2024-01-15T06:39:41;100125.56;;;1.02;100.00
61119;BME280;51448;51.660;5.824;2024-01-15T06:42:09;100123.94;;;1.01;100.00
61119;BME280;51448;51.660;5.824;2024-01-15T06:44:36;100121.78;;;1.03;100.00
61119;BME280;51448;51.660;5.824;2024-01-15T06:47:05;100124.75;;;1.07;100.00
61119;BME280;51448;51.660;5.824;2024-01-15T06:49:32;100130.19;;;1.07;100.00
61119;BME280;51448;51.660;5.824;2024-01-15T06:52:00;100125.31;;;1.09;100.00
61119;BME280;51448;51.660;5.824;2024-01-15T06:54:28;100132.91;;;1.07;100.00
61119;BME280;51448;51.660;5.824;2024-01-15T06:56:55;100127.47;;;1.07;100.00
61119;BME280;51448;51.660;5.824;2024-01-15T06:59:23;100125.31;;;1.04;100.00
61119;BME280;51448;51.660;5.824;2024-01-15T07:01:51;100130.75;;;1.04;100.00
61119;BME280;51448;51.660;5.824;2024-01-15T07:04:18;100125.03;;;1.05;100.00
61119;BME280;51448;51.660;5.824;2024-01-15T07:06:49;100126.94;;;1.05;100.00
61119;BME280;51448;51.660;5.824;2024-01-15T07:09:17;100128.84;;;1.04;100.00
61119;BME280;51448;51.660;5.824;2024-01-15T07:11:45;100128.03;;;1.04;100.00
61119;BME280;51448;51.660;5.824;2024-01-15T07:14:16;100125.31;;;1.04;100.00
61119;BME280;51448;51.660;5.824;2024-01-15T07:16:43;100132.09;;;1.07;100.00
61119;BME280;51448;51.660;5.824;2024-01-15T07:19:14;100131.28;;;1.06;100.00
61119;BME280;51448;51.660;5.824;2024-01-15T07:21:42;100121.50;;;1.05;100.00
61119;BME280;51448;51.660;5.824;2024-01-15T07:24:10;100124.22;;;1.05;100.00
61119;BME280;51448;51.660;5.824;2024-01-15T07:26:38;100109.53;;;1.06;100.00
61119;BME280;51448;51.660;5.824;2024-01-15T07:29:06;100111.97;;;1.08;100.00
61119;BME280;51448;51.660;5.824;2024-01-15T07:31:33;100115.50;;;1.08;100.00
61119;BME280;51448;51.660;5.824;2024-01-15T07:34:01;100110.34;;;1.12;100.00
61119;BME280;51448;51.660;5.824;2024-01-15T07:36:29;100117.41;;;1.13;100.00
61119;BME280;51448;51.660;5.824;2024-01-15T07:38:56;100109.25;;;1.13;100.00
61119;BME280;51448;51.660;5.824;2024-01-15T07:41:24;100111.97;;;1.13;100.00
61119;BME280;51448;51.660;5.824;2024-01-15T07:43:52;100125.56;;;1.13;100.00
61119;BME280;51448;51.660;5.824;2024-01-15T07:46:19;100149.75;;;1.14;100.00
61119;BME280;51448;51.660;5.824;2024-01-15T07:48:47;100139.94;;;1.13;100.00
61119;BME280;51448;51.660;5.824;2024-01-15T07:51:15;100163.06;;;1.16;100.00
61119;BME280;51448;51.660;5.824;2024-01-15T07:53:42;100152.47;;;1.14;100.00
61119;BME280;51448;51.660;5.824;2024-01-15T07:56:10;100155.19;;;1.14;100.00
61119;BME280;51448;51.660;5.824;2024-01-15T07:58:38;100143.47;;;1.14;100.00
61119;BME280;51448;51.660;5.824;2024-01-15T08:01:05;100142.94;;;1.12;100.00
61119;BME280;51448;51.660;5.824;2024-01-15T08:03:34;100146.75;;;1.11;100.00
61119;BME280;51448;51.660;5.824;2024-01-15T08:06:01;100139.41;;;1.11;100.00
61119;BME280;51448;51.660;5.824;2024-01-15T08:08:29;100149.47;;;1.11;100.00
61119;BME280;51448;51.660;5.824;2024-01-15T08:10:57;100147.28;;;1.13;100.00
61119;BME280;51448;51.660;5.824;2024-01-15T08:13:26;100151.09;;;1.12;100.00
61119;BME280;51448;51.660;5.824;2024-01-15T08:15:55;100147.56;;;1.11;100.00
61119;BME280;51448;51.660;5.824;2024-01-15T08:18:22;100152.72;;;1.13;100.00
61119;BME280;51448;51.660;5.824;2024-01-15T08:20:50;100159.78;;;1.14;100.00
61119;BME280;51448;51.660;5.824;2024-01-15T08:23:18;100163.06;;;1.16;100.00
61119;BME280;51448;51.660;5.824;2024-01-15T08:25:47;100162.25;;;1.15;100.00
61119;BME280;51448;51.660;5.824;2024-01-15T08:28:14;100164.69;;;1.17;100.00
61119;BME280;51448;51.660;5.824;2024-01-15T08:30:42;100159.25;;;1.17;100.00
61119;BME280;51448;51.660;5.824;2024-01-15T08:33:09;100164.69;;;1.17;100.00
61119;BME280;51448;51.660;5.824;2024-01-15T08:35:48;100166.31;;;1.18;100.00
61119;BME280;51448;51.660;5.824;2024-01-15T08:38:15;100160.06;;;1.17;100.00
61119;BME280;51448;51.660;5.824;2024-01-15T08:40:43;100163.88;;;1.16;100.00
61119;BME280;51448;51.660;5.824;2024-01-15T08:43:11;100163.88;;;1.16;100.00
61119;BME280;51448;51.660;5.824;2024-01-15T08:45:39;100157.63;;;1.16;100.00
61119;BME280;51448;51.660;5.824;2024-01-15T08:48:07;100163.34;;;1.14;100.00
61119;BME280;51448;51.660;5.824;2024-01-15T08:50:34;100174.47;;;1.13;100.00
61119;BME280;51448;51.660;5.824;2024-01-15T08:53:02;100157.34;;;1.12;100.00
61119;BME280;51448;51.660;5.824;2024-01-15T08:55:31;100169.03;;;1.13;100.00
61119;BME280;51448;51.660;5.824;2024-01-15T08:57:58;100176.09;;;1.14;100.00
61119;BME280;51448;51.660;5.824;2024-01-15T09:00:26;100177.47;;;1.16;100.00
61119;BME280;51448;51.660;5.824;2024-01-15T09:02:53;100171.50;;;1.14;100.00
61119;BME280;51448;51.660;5.824;2024-01-15T09:05:21;100184.81;;;1.16;100.00
61119;BME280;51448;51.660;5.824;2024-01-15T09:07:49;100191.59;;;1.13;100.00
61119;BME280;51448;51.660;5.824;2024-01-15T09:10:19;100187.53;;;1.11;100.00
61119;BME280;51448;51.660;5.824;2024-01-15T09:12:47;100189.69;;;1.09;100.00
61119;BME280;51448;51.660;5.824;2024-01-15T09:15:16;100200.81;;;1.07;100.00
61119;BME280;51448;51.660;5.824;2024-01-15T09:17:44;100180.47;;;1.04;100.00
61119;BME280;51448;51.660;5.824;2024-01-15T09:20:13;100166.06;;;1.04;100.00
61119;BME280;51448;51.660;5.824;2024-01-15T09:22:41;100168.78;;;1.04;100.00
61119;BME280;51448;51.660;5.824;2024-01-15T09:25:09;100165.25;;;1.03;100.00
61119;BME280;51448;51.660;5.824;2024-01-15T09:27:37;100157.63;;;1.05;100.00
61119;BME280;51448;51.660;5.824;2024-01-15T09:30:05;100166.31;;;1.08;100.00
61119;BME280;51448;51.660;5.824;2024-01-15T09:32:34;100170.41;;;1.05;100.00
61119;BME280;51448;51.660;5.824;2024-01-15T09:35:01;100178.56;;;1.05;100.00
61119;BME280;51448;51.660;5.824;2024-01-15T09:37:29;100175.28;;;1.08;100.00
61119;BME280;51448;51.660;5.824;2024-01-15T09:40:14;100170.41;;;1.05;100.00
61119;BME280;51448;51.660;5.824;2024-01-15T09:42:43;100170.69;;;1.03;100.00
61119;BME280;51448;51.660;5.824;2024-01-15T09:45:11;100188.63;;;1.04;100.00
61119;BME280;51448;51.660;5.824;2024-01-15T09:47:40;100191.31;;;1.04;100.00
61119;BME280;51448;51.660;5.824;2024-01-15T09:50:13;100201.91;;;1.06;100.00
61119;BME280;51448;51.660;5.824;2024-01-15T09:52:44;100197.28;;;1.07;100.00
61119;BME280;51448;51.660;5.824;2024-01-15T09:55:13;100198.38;;;1.11;100.00
61119;BME280;51448;51.660;5.824;2024-01-15T09:57:44;100199.47;;;1.10;100.00
61119;BME280;51448;51.660;5.824;2024-01-15T10:00:17;100196.19;;;1.13;100.00
61119;BME280;51448;51.660;5.824;2024-01-15T10:02:45;100181.00;;;1.12;100.00
61119;BME280;51448;51.660;5.824;2024-01-15T10:05:13;100186.44;;;1.17;100.00
61119;BME280;51448;51.660;5.824;2024-01-15T10:07:42;100192.41;;;1.19;100.00
61119;BME280;51448;51.660;5.824;2024-01-15T10:10:11;100181.00;;;1.22;100.00
61119;BME280;51448;51.660;5.824;2024-01-15T10:12:39;100170.13;;;1.27;100.00
61119;BME280;51448;51.660;5.824;2024-01-15T10:15:14;100170.09;;;1.32;100.00
61119;BME280;51448;51.660;5.824;2024-01-15T10:17:42;100167.09;;;1.39;100.00
61119;BME280;51448;51.660;5.824;2024-01-15T10:20:11;100180.09;;;1.52;100.00
61119;BME280;51448;51.660;5.824;2024-01-15T10:22:41;100172.75;;;1.63;100.00
61119;BME280;51448;51.660;5.824;2024-01-15T10:25:11;100174.63;;;1.67;100.00
61119;BME280;51448;51.660;5.824;2024-01-15T10:27:40;100182.53;;;1.69;100.00
61119;BME280;51448;51.660;5.824;2024-01-15T10:30:10;100177.91;;;1.69;100.00
61119;BME280;51448;51.660;5.824;2024-01-15T10:32:40;100181.69;;;1.68;100.00
61119;BME280;51448;51.660;5.824;2024-01-15T10:35:08;100182.28;;;1.65;100.00
61119;BME280;51448;51.660;5.824;2024-01-15T10:37:37;100175.47;;;1.63;100.00
61119;BME280;51448;51.660;5.824;2024-01-15T10:40:04;100174.41;;;1.64;100.00
61119;BME280;51448;51.660;5.824;2024-01-15T10:42:33;100173.31;;;1.65;100.00
61119;BME280;51448;51.660;5.824;2024-01-15T10:45:01;100172.47;;;1.69;100.00
61119;BME280;51448;51.660;5.824;2024-01-15T10:47:29;100171.09;;;1.72;100.00
61119;BME280;51448;51.660;5.824;2024-01-15T10:49:58;100166.72;;;1.76;100.00
61119;BME280;51448;51.660;5.824;2024-01-15T10:52:27;100161.28;;;1.76;100.00
61119;BME280;51448;51.660;5.824;2024-01-15T10:54:56;100168.34;;;1.77;100.00
61119;BME280;51448;51.660;5.824;2024-01-15T10:57:36;100162.63;;;1.78;100.00
61119;BME280;51448;51.660;5.824;2024-01-15T11:00:06;100162.38;;;1.80;100.00
61119;BME280;51448;51.660;5.824;2024-01-15T11:02:42;100153.63;;;1.83;100.00
61119;BME280;51448;51.660;5.824;2024-01-15T11:05:10;100163.97;;;1.86;100.00
61119;BME280;51448;51.660;5.824;2024-01-15T11:07:39;100161.25;;;1.91;100.00
61119;BME280;51448;51.660;5.824;2024-01-15T11:10:44;100167.22;;;1.93;100.00
61119;BME280;51448;51.660;5.824;2024-01-15T11:13:40;100173.19;;;1.95;100.00
61119;BME280;51448;51.660;5.824;2024-01-15T11:16:13;100168.56;;;1.96;100.00
61119;BME280;51448;51.660;5.824;2024-01-15T11:19:04;100172.63;;;1.98;100.00
61119;BME280;51448;51.660;5.824;2024-01-15T11:21:42;100173.72;;;2.02;100.00
61119;BME280;51448;51.660;5.824;2024-01-15T11:24:09;100158.72;;;2.05;100.00
61119;BME280;51448;51.660;5.824;2024-01-15T11:26:46;100157.06;;;2.09;100.00
61119;BME280;51448;51.660;5.824;2024-01-15T11:32:03;100159.47;;;2.16;100.00
61119;BME280;51448;51.660;5.824;2024-01-15T11:34:52;100160.28;;;2.21;100.00
61119;BME280;51448;51.660;5.824;2024-01-15T11:37:21;100166.50;;;2.27;100.00
61119;BME280;51448;51.660;5.824;2024-01-15T11:39:52;100173.81;;;2.36;100.00
61119;BME280;51448;51.660;5.824;2024-01-15T11:42:22;100174.84;;;2.46;100.00
61119;BME280;51448;51.660;5.824;2024-01-15T11:44:50;100169.38;;;2.51;100.00
61119;BME280;51448;51.660;5.824;2024-01-15T11:47:41;100176.16;;;2.53;100.00
61119;BME280;51448;51.660;5.824;2024-01-15T11:50:21;100180.50;;;2.54;100.00
61119;BME280;51448;51.660;5.824;2024-01-15T11:53:00;100179.69;;;2.54;100.00
61119;BME280;51448;51.660;5.824;2024-01-15T11:55:39;100175.06;;;2.49;100.00
61119;BME280;51448;51.660;5.824;2024-01-15T11:58:14;100172.38;;;2.44;100.00
61119;BME280;51448;51.660;5.824;2024-01-15T12:00:45;100167.53;;;2.36;100.00
61119;BME280;51448;51.660;5.824;2024-01-15T12:03:15;100161.56;;;2.34;100.00
61119;BME280;51448;51.660;5.824;2024-01-15T12:05:42;100172.72;;;2.32;100.00
61119;BME280;51448;51.660;5.824;2024-01-15T12:08:10;100171.91;;;2.32;100.00
61119;BME280;51448;51.660;5.824;2024-01-15T12:10:39;100187.72;;;2.30;100.00
61119;BME280;51448;51.660;5.824;2024-01-15T12:13:11;100183.66;;;2.27;100.00
61119;BME280;51448;51.660;5.824;2024-01-15T12:15:44;100190.47;;;2.25;100.00
61119;BME280;51448;51.660;5.824;2024-01-15T12:18:14;100191.31;;;2.20;100.00
61119;BME280;51448;51.660;5.824;2024-01-15T12:20:45;100195.16;;;2.14;100.00
61119;BME280;51448;51.660;5.824;2024-01-15T12:23:26;100198.72;;;2.09;100.00
61119;BME280;51448;51.660;5.824;2024-01-15T12:25:55;100195.19;;;2.04;100.00
61119;BME280;51448;51.660;5.824;2024-01-15T12:28:22;100210.72;;;2.03;100.00
61119;BME280;51448;51.660;5.824;2024-01-15T12:30:50;100214.53;;;2.02;100.00
61119;BME280;51448;51.660;5.824;2024-01-15T12:33:18;100212.63;;;2.03;100.00
61119;BME280;51448;51.660;5.824;2024-01-15T12:35:47;100215.06;;;2.04;100.00
61119;BME280;51448;51.660;5.824;2024-01-15T12:38:18;100216.13;;;2.08;100.00
61119;BME280;51448;51.660;5.824;2024-01-15T12:40:48;100208.50;;;2.10;100.00
61119;BME280;51448;51.660;5.824;2024-01-15T12:43:15;100220.19;;;2.11;100.00
61119;BME280;51448;51.660;5.824;2024-01-15T12:45:45;100224.81;;;2.10;100.00
61119;BME280;51448;51.660;5.824;2024-01-15T12:48:14;100218.84;;;2.08;100.00
61119;BME280;51448;51.660;5.824;2024-01-15T12:50:45;100228.66;;;2.04;100.00
61119;BME280;51448;51.660;5.824;2024-01-15T12:53:15;100222.13;;;2.05;100.00
61119;BME280;51448;51.660;5.824;2024-01-15T12:55:43;100225.91;;;2.09;100.00
61119;BME280;51448;51.660;5.824;2024-01-15T12:58:13;100222.09;;;2.10;100.00
61119;BME280;51448;51.660;5.824;2024-01-15T13:00:43;100222.91;;;2.11;100.00
61119;BME280;51448;51.660;5.824;2024-01-15T13:03:11;100224.81;;;2.10;100.00